Latest Coastal Weather Observations for Cape Flattery

IDQ60701

Issued at 10:32 am EST Monday 17 June 2019 (issued every 10 minutes, with the page automatically refreshed every 10 minutes)

About coastal observations | Map of coastal stations | Coastal observations for QLD | Marine services | Other Formats
Station Details ID: 031213 Name: CAPE FLATTERY Lat: -14.97 Lon: 145.31 Height: 18.5 m
Data from the previous 72 hours. | See also: Recent months at Cape Flattery
Date/Time
EST
Wind Sea
Height
m
Swell Vis
km
Cloud Weather Temp
°C
Press
hPa
Rain since
9am
mm
Dir  Spd
kts
Gust
kts
Height
m
Period
s
Dir
17/10:30am SE 15 19 - - - - - - - 26.0 1016.3 0.0
17/10:00am SSE 16 21 - - - - - - - 24.7 1016.3 0.0
17/09:30am SSE 15 21 - - - - - - - 24.5 1016.4 0.0
17/09:00am SE 15 21 - - - - - - - 24.1 1016.2 6.8
17/08:30am SSE 16 21 - - - - - - - 24.0 1015.9 6.8
17/08:00am SSE 14 18 - - - - - - - 23.3 1015.6 6.8
17/07:30am SSE 15 19 - - - - - - - 22.9 1015.2 6.8
17/07:00am SSE 13 18 - - - - - - - 22.7 1015.0 6.8
17/06:30am SSE 13 17 - - - - - - - 22.4 1014.8 6.8
17/06:00am SSE 13 17 - - - - - - - 22.6 1014.6 6.8
17/05:30am SSE 15 19 - - - - - - - 22.6 1014.5 6.8
17/05:00am SSE 11 14 - - - - - - - 22.6 1014.5 6.8
17/04:30am SSE 11 15 - - - - - - - 22.6 1014.5 6.8
17/04:00am SSE 11 14 - - - - - - - 22.4 1014.5 6.8
17/03:30am SSE 10 14 - - - - - - - 22.4 1014.5 6.8
17/03:00am SSE 11 14 - - - - - - - 22.2 1014.8 6.8
17/02:30am SSE 13 18 - - - - - - - 22.2 1014.8 6.8
17/02:00am SSE 13 17 - - - - - - - 22.4 1014.8 6.8
17/01:30am SSE 12 16 - - - - - - - 22.5 1014.9 6.8
17/01:00am SE 11 14 - - - - - - - 22.2 1015.3 6.8
17/12:30am SSE 11 15 - - - - - - - 22.0 1015.6 6.8
17/12:00am SSE 10 13 - - - - - - Recent precip. 22.4 1015.6 6.8
 
Date/Time
EST
Wind Sea
Height
m
Swell Vis
km
Cloud Weather Temp
°C
Press
hPa
Rain since
9am
mm
Dir  Spd
kts
Gust
kts
Height
m
Period
s
Dir
16/11:30pm SSE 17 23 - - - - - - - 21.7 1015.9 6.6
16/11:00pm SSE 13 17 - - - - - - - 23.4 1015.9 6.2
16/10:30pm SSE 13 20 - - - - - - - 23.6 1016.2 6.2
16/10:00pm SSE 12 17 - - - - - - - 23.3 1016.3 6.2
16/09:30pm SE 12 16 - - - - - - - 23.1 1016.4 6.2
16/09:00pm SSE 11 15 - - - - - - - 22.9 1016.1 6.2
16/08:30pm SSE 13 17 - - - - - - - 23.3 1016.1 6.2
16/08:00pm SSE 13 18 - - - - - - - 23.1 1015.9 6.2
16/07:30pm SSE 13 18 - - - - - - - 22.8 1015.6 6.2
16/07:00pm SSE 13 17 - - - - - - - 22.6 1015.2 6.2
16/06:30pm SE 13 20 - - - - - - - 23.0 1014.9 6.2
16/06:00pm SSE 16 21 - - - - - - - 23.1 1014.4 6.2
16/05:30pm SSE 14 19 - - - - - - - 23.3 1014.2 6.2
16/05:00pm SSE 15 21 - - - - - - - 23.4 1013.9 6.2
16/04:30pm SSE 15 20 - - - - - - - 23.5 1013.9 6.2
16/04:00pm SSE 15 21 - - - - - - - 24.0 1013.8 6.2
16/03:30pm SSE 15 20 - - - - - - - 24.5 1013.9 6.2
16/03:00pm SSE 15 18 - - - - - - - 24.3 1014.0 6.0
16/02:30pm SSE 15 19 - - - - - - - 24.2 1014.2 6.0
16/02:00pm SSE 13 18 - - - - - - - 23.3 1014.6 6.0
16/01:30pm ESE 11 17 - - - - - - - 22.2 1015.2 6.0
16/01:10pm ESE 15 25 - - - - - - - 21.5 1015.4 3.0
16/01:00pm SSE 14 20 - - - - - - - 24.0 1015.1 0.2
16/12:30pm SSE 13 19 - - - - - - - 23.5 1015.5 0.2
16/12:00pm SSE 15 20 - - - - - - - 25.1 1015.6 0.2
16/11:30am S 15 19 - - - - - - - 25.2 1015.8 0.2
16/11:00am SSE 13 16 - - - - - - - 24.7 1016.1 0.2
16/10:30am SSE 13 18 - - - - - - - 24.9 1016.2 0.2
16/10:00am SSE 12 15 - - - - - - - 24.1 1016.4 0.0
16/09:30am SE 10 14 - - - - - - - 23.7 1016.4 0.0
16/09:00am SSE 9 13 - - - - - - - 22.5 1016.3 1.2
16/08:30am S 12 15 - - - - - - - 22.4 1016.3 1.2
16/08:00am SSE 11 16 - - - - - - - 22.0 1016.1 1.2
16/07:30am S 9 13 - - - - - - - 21.8 1015.8 1.2
16/07:00am S 11 15 - - - - - - - 21.3 1015.5 1.2
16/06:30am SSE 6 11 - - - - - - - 21.3 1015.5 1.0
16/06:00am SSE 4 6 - - - - - - Recent precip. 20.9 1015.1 0.4
16/05:30am SSW 2 5 - - - - - - - 20.9 1014.8 0.2
16/05:00am SSW 7 8 - - - - - - - 20.9 1014.7 0.2
16/04:30am S 9 13 - - - - - - - 21.3 1014.6 0.2
16/04:00am S 9 13 - - - - - - - 21.6 1014.6 0.2
16/03:30am S 7 9 - - - - - - - 22.0 1014.5 0.2
16/03:00am S 8 11 - - - - - - - 22.1 1014.6 0.2
16/02:30am SSE 9 11 - - - - - - - 23.0 1014.7 0.2
16/02:00am SSE 10 15 - - - - - - - 22.7 1014.9 0.2
16/01:30am SSE 11 14 - - - - - - - 22.4 1015.2 0.2
16/01:00am SE 11 14 - - - - - - - 22.5 1015.4 0.2
16/12:30am SE 10 14 - - - - - - - 22.9 1015.4 0.2
16/12:00am SE 11 14 - - - - - - - 23.1 1015.5 0.2
 
Date/Time
EST
Wind Sea
Height
m
Swell Vis
km
Cloud Weather Temp
°C
Press
hPa
Rain since
9am
mm
Dir  Spd
kts
Gust
kts
Height
m
Period
s
Dir
15/11:30pm SSE 11 13 - - - - - - - 22.9 1015.7 0.2
15/11:00pm SSE 9 11 - - - - - - - 22.8 1015.9 0.2
15/10:30pm SSE 12 16 - - - - - - - 23.0 1015.9 0.2
15/10:00pm SSE 11 14 - - - - - - - 23.0 1016.0 0.2
15/09:30pm SSE 12 16 - - - - - - - 23.2 1015.9 0.2
15/09:00pm SSE 12 16 - - - - - - - 23.6 1015.7 0.2
15/08:30pm SE 12 17 - - - - - - - 23.3 1015.4 0.2
15/08:00pm SSE 12 15 - - - - - - - 23.1 1014.8 0.2
15/07:30pm SSE 12 18 - - - - - - - 23.0 1014.7 0.2
15/07:00pm SSE 13 18 - - - - - - - 22.8 1014.4 0.2
15/06:30pm SSE 13 17 - - - - - - - 23.2 1014.1 0.2
15/06:00pm SSE 10 13 - - - - - - - 23.2 1013.9 0.2
15/05:30pm SSE 12 16 - - - - - - - 23.7 1013.8 0.2
15/05:00pm SSE 13 19 - - - - - - - 24.2 1013.7 0.2
15/04:30pm SSE 16 23 - - - - - - - 24.6 1013.5 0.2
15/04:00pm SSE 16 20 - - - - - - - 24.8 1013.2 0.2
15/03:30pm SSE 14 19 - - - - - - - 25.3 1013.2 0.2
15/03:00pm SSE 14 19 - - - - - - - 26.0 1013.2 0.2
15/02:30pm SSE 14 18 - - - - - - - 26.1 1013.4 0.2
15/02:00pm SSE 16 21 - - - - - - - 25.9 1013.5 0.2
15/01:30pm SSE 15 21 - - - - - - - 26.3 1013.8 0.2
15/01:00pm SSE 15 19 - - - - - - - 26.4 1014.2 0.2
15/12:30pm SE 13 17 - - - - - - - 27.1 1014.6 0.2
15/12:00pm SE 15 19 - - - - - - - 26.5 1015.1 0.2
15/11:30am SE 13 18 - - - - - - - 26.2 1015.4 0.2
15/11:00am SE 16 21 - - - - - - - 24.8 1015.8 0.2
15/10:30am SE 15 19 - - - - - - - 25.4 1015.9 0.0
15/10:00am SE 14 19 - - - - - - - 25.1 1016.0 0.0
15/09:30am SE 15 21 - - - - - - - 24.4 1016.2 0.0
15/09:00am SSE 15 20 - - - - - - - 22.8 1016.3 0.6
15/08:30am SE 7 12 - - - - - - - 23.3 1016.0 0.6
15/08:00am ESE 11 16 - - - - - - - 21.8 1015.9 0.6
15/07:30am ESE 10 15 - - - - - - - 22.1 1015.3 0.6
15/07:00am ESE 13 21 - - - - - - - 21.5 1015.1 0.6
15/06:30am ESE 9 15 - - - - - - - 23.3 1014.8 0.0
15/06:00am SE 10 14 - - - - - - - 23.4 1014.6 0.0
15/05:30am SE 9 11 - - - - - - - 22.3 1014.3 0.0
15/05:00am SSE 7 11 - - - - - - - 21.7 1014.1 0.0
15/04:30am SE 12 17 - - - - - - - 22.5 1014.0 0.0
15/04:00am SE 10 14 - - - - - - - 22.7 1014.0 0.0
15/03:30am SSE 9 12 - - - - - - - 22.7 1013.9 0.0
15/03:00am SSE 11 14 - - - - - - - 22.6 1014.0 0.0
15/02:30am SE 10 15 - - - - - - - 23.1 1014.3 0.0
15/02:00am SE 11 14 - - - - - - - 22.8 1014.5 0.0
15/01:30am SE 11 15 - - - - - - - 23.1 1014.7 0.0
15/01:00am SSE 10 14 - - - - - - - 22.7 1015.1 0.0
15/12:30am SE 13 17 - - - - - - - 23.0 1015.1 0.0
15/12:00am SE 11 14 - - - - - - - 23.2 1015.4 0.0
 
Date/Time
EST
Wind Sea
Height
m
Swell Vis
km
Cloud Weather Temp
°C
Press
hPa
Rain since
9am
mm
Dir  Spd
kts
Gust
kts
Height
m
Period
s
Dir
14/11:30pm SE 11 15 - - - - - - - 23.9 1015.4 0.0
14/11:00pm SE 12 17 - - - - - - - 23.6 1015.5 0.0
14/10:30pm SE 12 16 - - - - - - - 23.6 1015.7 0.0
14/10:00pm SE 14 18 - - - - - - - 23.5 1015.8 0.0
14/09:30pm SE 13 17 - - - - - - - 23.5 1015.7 0.0
14/09:00pm SE 13 17 - - - - - - - 23.3 1015.7 0.0
14/08:30pm SE 13 18 - - - - - - - 23.0 1015.6 0.0
14/08:00pm SSE 13 17 - - - - - - - 23.3 1015.5 0.0
14/07:30pm SSE 13 17 - - - - - - - 23.2 1015.3 0.0
14/07:00pm SSE 14 19 - - - - - - - 23.7 1014.9 0.0
14/06:30pm SSE 14 19 - - - - - - - 23.6 1014.6 0.0
14/06:00pm SSE 13 19 - - - - - - - 23.4 1014.4 0.0
14/05:30pm SSE 12 17 - - - - - - - 23.5 1014.2 0.0
14/05:00pm SSE 16 20 - - - - - - - 24.2 1014.0 0.0
14/04:30pm SSE 16 20 - - - - - - - 24.0 1013.8 0.0
14/04:00pm SSE 15 21 - - - - - - - 25.4 1013.6 0.0
14/03:30pm SSE 15 21 - - - - - - - 25.1 1013.7 0.0
14/03:00pm SSE 16 22 - - - - - - - 25.2 1013.6 0.0
14/02:30pm SSE 17 22 - - - - - - - 26.1 1013.6 0.0
14/02:00pm SSE 18 22 - - - - - - - 25.6 1013.9 0.0
14/01:30pm SSE 17 21 - - - - - - - 26.3 1014.2 0.0
14/01:00pm SSE 18 23 - - - - - - - 25.9 1014.5 0.0
14/12:30pm SSE 16 21 - - - - - - - 26.7 1014.9 0.0
14/12:00pm SSE 14 19 - - - - - - - 27.2 1015.3 0.0
14/11:30am SE 17 21 - - - - - - - 26.7 1015.6 0.0
14/11:00am SE 13 17 - - - - - - - 26.9 1015.8 0.0

Other formats

Comma delimited format used in spreadsheet applications
http://www.bom.gov.au/fwo/IDQ60701/IDQ60701.94188.axf

JavaScript Object Notation format (JSON) in row-major order
http://www.bom.gov.au/fwo/IDQ60701/IDQ60701.94188.json

Data quality

Most of these data are generated automatically and are frequently updated. Quality checks on data are not normally performed. It is possible for incorrect values to appear. Refer to information at About Latest Weather Observations and please check the disclaimer before using these data.